CheckWX is a tool to help pilots better visualize weather data.  It is not intended as a substitute for an official pre-flight weather briefing.

17:06:01 UTC

LFLX TAF
Châteauroux-Déols "Marcel Dassault" Airport
Châteauroux/Déols, France
TAF LFLX 281100Z 2812/2918 05008KT CAVOK

May-28@
12:00 UTC

May-28 @ 12:00 UTC

May-29@
18:00 UTC

May-29 @ 18:00 UTC

TAF LFLX 281100Z 2812/2918 05008KT CAVOK
Wind
  • 050° at 8 KTS
Conditions
No significant weather
Cloud Levels
  • No significant clouds